createdAt,value
2017-08-28T00:00:27.655Z,91.70
2017-08-28T00:02:55.118Z,91.40
2017-08-28T00:05:22.596Z,91.50
2017-08-28T00:07:50.051Z,91.20
2017-08-28T00:10:17.521Z,91.10
2017-08-28T00:12:44.988Z,91.20
2017-08-28T00:15:12.460Z,90.90
2017-08-28T00:17:39.940Z,91.00
2017-08-28T00:20:07.412Z,90.80
2017-08-28T00:22:34.877Z,90.80
2017-08-28T00:25:02.354Z,90.80
2017-08-28T00:27:29.825Z,90.80
2017-08-28T00:29:57.321Z,90.80
2017-08-28T00:32:24.785Z,90.70
2017-08-28T00:34:52.249Z,90.70
2017-08-28T00:37:19.730Z,90.90
2017-08-28T00:39:47.201Z,90.90
2017-08-28T00:42:14.675Z,91.00
2017-08-28T00:44:42.136Z,91.00
2017-08-28T00:47:09.614Z,91.30
2017-08-28T00:49:37.067Z,91.70
2017-08-28T00:52:04.542Z,91.80
2017-08-28T00:54:32.007Z,91.60
2017-08-28T00:56:59.470Z,91.70
2017-08-28T00:59:26.932Z,92.00
2017-08-28T01:01:54.461Z,91.80
2017-08-28T01:04:21.945Z,91.70
2017-08-28T01:06:49.420Z,91.60
2017-08-28T01:09:16.895Z,91.60
2017-08-28T01:11:44.361Z,91.70
2017-08-28T01:14:11.833Z,91.70
2017-08-28T01:16:39.304Z,91.70
2017-08-28T01:19:06.771Z,91.90
2017-08-28T01:21:34.236Z,91.80
2017-08-28T01:24:01.712Z,91.90
2017-08-28T01:26:29.190Z,92.00
2017-08-28T01:28:56.659Z,92.30
2017-08-28T01:31:24.124Z,91.90
2017-08-28T01:33:51.594Z,92.10
2017-08-28T01:36:19.060Z,92.00
2017-08-28T01:38:46.536Z,91.80
2017-08-28T01:41:13.990Z,91.80
2017-08-28T01:43:41.460Z,91.80
2017-08-28T01:46:08.932Z,91.70
2017-08-28T01:48:36.408Z,91.70
2017-08-28T01:51:03.877Z,91.70
2017-08-28T01:53:31.358Z,91.80
2017-08-28T01:55:58.820Z,91.90
2017-08-28T01:58:26.308Z,91.80
2017-08-28T02:00:53.778Z,91.70
2017-08-28T02:03:21.241Z,91.90
2017-08-28T02:05:48.723Z,91.70
2017-08-28T02:08:16.189Z,92.10
2017-08-28T02:10:43.667Z,91.70
2017-08-28T02:13:11.144Z,91.60
2017-08-28T02:15:38.627Z,91.70
2017-08-28T02:18:06.089Z,91.70
2017-08-28T02:20:33.559Z,91.70
2017-08-28T02:23:01.797Z,91.60
2017-08-28T02:25:29.267Z,91.60
2017-08-28T02:27:56.732Z,91.60
2017-08-28T02:30:24.200Z,91.50
2017-08-28T02:32:51.665Z,91.50
2017-08-28T02:35:19.141Z,91.60
2017-08-28T02:37:46.610Z,91.70
2017-08-28T02:40:14.082Z,91.70
2017-08-28T02:42:41.544Z,91.70
2017-08-28T02:45:09.028Z,91.70
2017-08-28T02:47:36.516Z,91.70
2017-08-28T02:50:04.764Z,91.70
2017-08-28T02:52:32.229Z,91.70
2017-08-28T02:54:59.695Z,91.50
2017-08-28T02:57:27.166Z,91.50
2017-08-28T02:59:54.640Z,91.60
2017-08-28T03:02:22.100Z,91.80
2017-08-28T03:04:49.587Z,91.70
2017-08-28T03:07:17.054Z,91.90
2017-08-28T03:09:44.520Z,92.00
2017-08-28T03:12:11.996Z,92.10
2017-08-28T03:14:39.460Z,92.10
2017-08-28T03:17:06.928Z,92.00
2017-08-28T03:19:34.388Z,92.10
2017-08-28T03:22:02.625Z,92.00
2017-08-28T03:24:30.091Z,92.00
2017-08-28T03:26:57.561Z,92.10
2017-08-28T03:29:25.027Z,91.90
2017-08-28T03:31:52.495Z,91.90
2017-08-28T03:34:19.959Z,92.00
2017-08-28T03:36:48.188Z,92.00
2017-08-28T03:39:15.653Z,91.90
2017-08-28T03:41:43.147Z,92.00
2017-08-28T03:44:11.377Z,92.10
2017-08-28T03:46:38.844Z,92.10
2017-08-28T03:49:06.329Z,91.80
2017-08-28T03:51:33.795Z,91.90
2017-08-28T03:54:01.264Z,92.00
2017-08-28T03:56:28.735Z,92.10
2017-08-28T03:58:56.200Z,91.90
2017-08-28T04:01:23.671Z,91.80
2017-08-28T04:03:51.146Z,91.90
2017-08-28T04:06:18.608Z,92.00
2017-08-28T04:08:46.084Z,92.00
2017-08-28T04:11:14.884Z,92.00
2017-08-28T04:13:42.358Z,91.90
2017-08-28T04:16:09.825Z,91.90
2017-08-28T04:18:37.291Z,91.80
2017-08-28T04:21:04.751Z,91.70
2017-08-28T04:23:32.230Z,91.80
2017-08-28T04:25:59.689Z,91.70
2017-08-28T04:28:27.162Z,91.60
2017-08-28T04:30:54.633Z,91.70
2017-08-28T04:33:22.108Z,91.80
2017-08-28T04:35:49.573Z,91.80
2017-08-28T04:38:17.068Z,91.90
2017-08-28T04:40:44.549Z,91.90
2017-08-28T04:43:12.014Z,91.90
2017-08-28T04:45:39.484Z,92.00
2017-08-28T04:48:06.955Z,92.70
2017-08-28T04:50:34.428Z,92.90
2017-08-28T04:53:01.887Z,92.70
2017-08-28T04:55:29.356Z,93.30
2017-08-28T04:57:56.815Z,93.60
2017-08-28T05:00:24.289Z,93.50
2017-08-28T05:02:51.752Z,93.60
2017-08-28T05:05:19.228Z,93.70
2017-08-28T05:07:46.692Z,93.80
2017-08-28T05:10:14.177Z,93.70
2017-08-28T05:12:41.638Z,93.70
2017-08-28T05:15:09.105Z,93.60
2017-08-28T05:17:36.569Z,93.40
2017-08-28T05:20:04.065Z,93.70
2017-08-28T05:22:31.519Z,93.60
2017-08-28T05:24:58.991Z,93.50
2017-08-28T05:27:26.457Z,93.70
2017-08-28T05:29:53.932Z,93.80
2017-08-28T05:32:21.392Z,93.70
2017-08-28T05:34:48.859Z,93.80
2017-08-28T05:37:16.336Z,93.90
2017-08-28T05:39:44.613Z,93.80
2017-08-28T05:42:12.084Z,93.90
2017-08-28T05:44:39.548Z,94.20
2017-08-28T05:47:07.017Z,94.20
2017-08-28T05:49:34.477Z,94.50
2017-08-28T05:52:01.955Z,94.80
2017-08-28T05:54:29.424Z,94.80
2017-08-28T05:56:56.892Z,94.90
2017-08-28T05:59:24.352Z,94.80
2017-08-28T06:01:51.909Z,94.90
2017-08-28T06:04:19.376Z,95.20
2017-08-28T06:06:46.856Z,95.00
2017-08-28T06:09:14.324Z,95.00
2017-08-28T06:11:42.605Z,94.90
2017-08-28T06:14:10.069Z,94.90
2017-08-28T06:16:37.552Z,95.10
2017-08-28T06:19:05.017Z,94.90
2017-08-28T06:21:32.476Z,94.80
2017-08-28T06:23:59.952Z,94.60
2017-08-28T06:26:27.430Z,94.60
2017-08-28T06:28:54.888Z,94.40
2017-08-28T06:31:22.356Z,94.50
2017-08-28T06:33:49.836Z,94.20
2017-08-28T06:36:17.317Z,93.70
2017-08-28T06:38:44.798Z,94.10
2017-08-28T06:41:12.259Z,94.10
2017-08-28T06:43:39.736Z,93.30
2017-08-28T06:46:07.196Z,92.60
2017-08-28T06:48:34.672Z,92.80
2017-08-28T06:51:02.142Z,92.40
2017-08-28T06:53:29.615Z,92.10
2017-08-28T06:55:57.080Z,91.90
2017-08-28T06:58:24.560Z,92.00
2017-08-28T07:00:52.032Z,92.10
2017-08-28T07:03:19.496Z,91.30
2017-08-28T07:05:46.964Z,91.20
2017-08-28T07:08:14.428Z,90.80
2017-08-28T07:10:41.896Z,90.60
2017-08-28T07:13:09.372Z,90.10
2017-08-28T07:15:36.832Z,90.60
2017-08-28T07:18:04.319Z,90.20
2017-08-28T07:20:31.781Z,90.00
2017-08-28T07:22:59.264Z,89.80
2017-08-28T07:25:26.727Z,89.90
2017-08-28T07:27:54.191Z,89.50
2017-08-28T07:30:21.667Z,89.00
2017-08-28T07:32:49.129Z,88.60
2017-08-28T07:35:16.604Z,87.40
2017-08-28T07:37:44.069Z,87.10
2017-08-28T07:40:11.546Z,87.30
2017-08-28T07:42:39.014Z,87.70
2017-08-28T07:45:06.492Z,89.60
2017-08-28T07:47:33.963Z,85.10
2017-08-28T07:50:01.436Z,86.20
2017-08-28T07:52:28.903Z,86.10
2017-08-28T07:54:56.383Z,85.00
2017-08-28T07:57:23.847Z,85.10
2017-08-28T07:59:51.316Z,84.70
2017-08-28T08:02:18.782Z,83.40
2017-08-28T08:04:46.251Z,83.50
2017-08-28T08:07:13.725Z,82.60
2017-08-28T08:09:41.192Z,83.00
2017-08-28T08:12:08.664Z,82.30
2017-08-28T08:14:36.125Z,81.10
2017-08-28T08:17:03.592Z,82.50
2017-08-28T08:19:31.065Z,82.00
2017-08-28T08:21:58.536Z,79.50
2017-08-28T08:24:26.000Z,79.60
2017-08-28T08:26:53.472Z,79.40
2017-08-28T08:29:20.946Z,80.60
2017-08-28T08:31:48.421Z,77.30
2017-08-28T08:34:21.521Z,78.30
2017-08-28T08:36:48.992Z,76.00
2017-08-28T08:39:16.462Z,75.70
2017-08-28T08:41:43.939Z,74.80
2017-08-28T08:44:11.405Z,75.20
2017-08-28T08:46:38.875Z,70.50
2017-08-28T08:49:06.342Z,70.20
2017-08-28T08:51:33.815Z,67.80
2017-08-28T08:54:01.279Z,71.40
2017-08-28T08:56:28.760Z,63.20
2017-08-28T08:58:56.237Z,66.30
2017-08-28T09:01:23.696Z,66.60
2017-08-28T09:03:51.172Z,64.60
2017-08-28T09:06:18.635Z,66.90
2017-08-28T09:08:46.107Z,64.10
2017-08-28T09:11:13.568Z,62.80
2017-08-28T09:13:41.048Z,63.80
2017-08-28T09:16:08.525Z,59.80
2017-08-28T09:18:35.992Z,60.70
2017-08-28T09:21:03.456Z,60.90
2017-08-28T09:23:30.932Z,58.10
2017-08-28T09:25:58.395Z,59.60
2017-08-28T09:28:25.870Z,59.40
2017-08-28T09:30:53.332Z,61.10
2017-08-28T09:33:20.803Z,62.10
2017-08-28T09:35:48.272Z,61.90
2017-08-28T09:38:15.743Z,60.80
2017-08-28T09:40:43.221Z,60.30
2017-08-28T09:43:10.696Z,58.60
2017-08-28T09:45:38.162Z,57.20
2017-08-28T09:48:05.636Z,59.80
2017-08-28T09:50:33.096Z,57.20
2017-08-28T09:53:01.332Z,56.00
2017-08-28T09:55:28.792Z,56.00
2017-08-28T09:57:56.268Z,56.60
2017-08-28T10:00:23.728Z,56.70
2017-08-28T10:02:51.207Z,55.60
2017-08-28T10:05:18.666Z,56.30
2017-08-28T10:07:46.140Z,54.90
2017-08-28T10:10:13.603Z,55.40
2017-08-28T10:12:41.080Z,53.80
2017-08-28T10:15:08.544Z,53.60
2017-08-28T10:17:36.013Z,53.40
2017-08-28T10:20:03.472Z,55.70
2017-08-28T10:22:30.944Z,54.00
2017-08-28T10:24:58.414Z,53.90
2017-08-28T10:27:25.396Z,56.90
2017-08-28T10:29:52.863Z,57.90
2017-08-28T10:32:20.333Z,56.60
2017-08-28T10:34:47.796Z,55.20
2017-08-28T10:37:15.265Z,55.40
2017-08-28T10:39:42.734Z,53.30
2017-08-28T10:42:10.224Z,53.50
2017-08-28T10:44:38.451Z,54.10
2017-08-28T10:47:05.924Z,53.70
2017-08-28T10:49:34.209Z,54.40
2017-08-28T10:52:01.680Z,52.80
2017-08-28T10:54:29.152Z,53.00
2017-08-28T10:56:56.614Z,55.30
2017-08-28T10:59:24.079Z,53.20
2017-08-28T11:01:51.555Z,52.40
2017-08-28T11:04:19.026Z,52.30
2017-08-28T11:06:46.488Z,51.40
2017-08-28T11:09:13.964Z,55.10
2017-08-28T11:11:41.896Z,51.40
2017-08-28T11:14:09.368Z,53.00
2017-08-28T11:16:36.833Z,53.40
2017-08-28T11:19:04.304Z,55.50
2017-08-28T11:21:31.771Z,51.40
2017-08-28T11:23:59.244Z,51.00
2017-08-28T11:26:26.719Z,51.10
2017-08-28T11:28:54.188Z,51.50
2017-08-28T11:31:21.656Z,51.50
2017-08-28T11:33:49.143Z,48.70
2017-08-28T11:36:16.608Z,53.30
2017-08-28T11:38:44.301Z,51.60
2017-08-28T11:41:11.772Z,49.50
2017-08-28T11:43:39.236Z,47.30
2017-08-28T11:46:06.708Z,50.00
2017-08-28T11:48:34.180Z,50.60
2017-08-28T11:51:01.657Z,48.40
2017-08-28T11:53:29.142Z,49.60
2017-08-28T11:55:56.601Z,50.40
2017-08-28T11:58:24.062Z,48.90
2017-08-28T12:00:51.529Z,47.80
2017-08-28T12:03:18.995Z,48.70
2017-08-28T12:05:46.463Z,51.70
2017-08-28T12:08:13.928Z,47.50
2017-08-28T12:10:41.401Z,49.40
2017-08-28T12:13:08.863Z,48.10
2017-08-28T12:15:36.332Z,50.20
2017-08-28T12:18:04.522Z,50.90
2017-08-28T12:20:32.006Z,51.60
2017-08-28T12:22:59.476Z,48.40
2017-08-28T12:25:26.941Z,49.80
2017-08-28T12:27:54.412Z,50.60
2017-08-28T12:30:21.890Z,48.70
2017-08-28T12:32:49.348Z,50.60
2017-08-28T12:35:16.819Z,49.00
2017-08-28T12:37:44.283Z,49.50
2017-08-28T12:40:11.757Z,50.90
2017-08-28T12:42:39.221Z,49.80
2017-08-28T12:45:06.699Z,50.80
2017-08-28T12:47:34.163Z,50.40
2017-08-28T12:50:01.624Z,52.10
2017-08-28T12:52:29.532Z,50.10
2017-08-28T12:54:56.987Z,49.80
2017-08-28T12:57:24.467Z,51.20
2017-08-28T12:59:51.923Z,49.30
2017-08-28T13:02:19.405Z,48.90
2017-08-28T13:04:46.872Z,48.40
2017-08-28T13:07:14.340Z,49.20
2017-08-28T13:09:41.803Z,48.40
2017-08-28T13:12:09.272Z,50.90
2017-08-28T13:14:36.743Z,49.60
2017-08-28T13:17:04.212Z,49.80
2017-08-28T13:19:31.684Z,48.20
2017-08-28T13:21:59.151Z,50.40
2017-08-28T13:24:26.620Z,52.70
2017-08-28T13:26:54.080Z,50.40
2017-08-28T13:29:21.553Z,50.70
2017-08-28T13:31:49.021Z,50.00
2017-08-28T13:34:16.488Z,48.90
2017-08-28T13:36:43.948Z,49.50
2017-08-28T13:39:11.424Z,50.80
2017-08-28T13:41:38.884Z,49.90
2017-08-28T13:44:06.356Z,50.40
2017-08-28T13:46:33.829Z,52.50
2017-08-28T13:49:01.296Z,52.70
2017-08-28T13:51:28.763Z,51.10
2017-08-28T13:53:56.249Z,49.70
2017-08-28T13:56:23.705Z,52.20
2017-08-28T13:58:51.183Z,50.30
2017-08-28T14:01:18.647Z,50.00
2017-08-28T14:03:46.129Z,50.40
2017-08-28T14:06:13.600Z,49.50
2017-08-28T14:08:41.076Z,49.60
2017-08-28T14:11:08.549Z,50.30
2017-08-28T14:13:36.025Z,53.20
2017-08-28T14:16:03.492Z,48.90
2017-08-28T14:18:30.968Z,52.00
2017-08-28T14:20:58.428Z,51.80
2017-08-28T14:23:25.906Z,50.00
2017-08-28T14:25:53.372Z,50.70
2017-08-28T14:28:20.848Z,49.90
2017-08-28T14:30:48.311Z,50.30
2017-08-28T14:33:15.785Z,50.20
2017-08-28T14:35:43.244Z,50.20
2017-08-28T14:38:10.716Z,50.50
2017-08-28T14:40:38.187Z,51.10
2017-08-28T14:43:05.656Z,49.70
2017-08-28T14:45:33.135Z,51.50
2017-08-28T14:48:00.598Z,52.90
2017-08-28T14:50:28.076Z,51.40
2017-08-28T14:52:55.540Z,51.60
2017-08-28T14:55:23.014Z,52.20
2017-08-28T14:57:50.485Z,52.70
2017-08-28T15:00:17.964Z,53.60
2017-08-28T15:02:45.437Z,53.90
2017-08-28T15:05:12.900Z,53.20
2017-08-28T15:07:40.376Z,52.10
2017-08-28T15:10:07.839Z,52.30
2017-08-28T15:12:35.321Z,49.80
2017-08-28T15:15:02.780Z,50.40
2017-08-28T15:17:30.252Z,50.20
2017-08-28T15:19:57.720Z,50.20
2017-08-28T15:22:25.192Z,49.80
2017-08-28T15:24:52.660Z,51.60
2017-08-28T15:27:20.149Z,50.40
2017-08-28T15:29:47.620Z,52.10
2017-08-28T15:32:15.097Z,52.20
2017-08-28T15:34:42.559Z,50.90
2017-08-28T15:37:10.039Z,51.10
2017-08-28T15:39:37.500Z,50.10
2017-08-28T15:42:04.973Z,51.10
2017-08-28T15:44:32.440Z,52.20
2017-08-28T15:46:59.911Z,51.20
2017-08-28T15:49:27.384Z,50.10
2017-08-28T15:51:54.868Z,50.00
2017-08-28T15:54:22.332Z,50.50
2017-08-28T15:56:49.806Z,51.00
2017-08-28T15:59:17.274Z,51.70
2017-08-28T16:01:44.745Z,50.60
2017-08-28T16:04:12.211Z,51.30
2017-08-28T16:06:39.689Z,52.70
2017-08-28T16:09:07.139Z,51.80
2017-08-28T16:11:34.621Z,52.50
2017-08-28T16:14:02.084Z,52.10
2017-08-28T16:16:29.560Z,53.00
2017-08-28T16:18:57.254Z,54.00
2017-08-28T16:21:24.761Z,53.30
2017-08-28T16:23:52.224Z,53.40
2017-08-28T16:26:19.701Z,54.30
2017-08-28T16:28:47.159Z,53.90
2017-08-28T16:31:14.632Z,54.10
2017-08-28T16:33:42.122Z,54.90
2017-08-28T16:36:09.592Z,56.30
2017-08-28T16:38:37.055Z,55.60
2017-08-28T16:41:04.560Z,56.50
2017-08-28T16:43:32.039Z,56.80
2017-08-28T16:45:59.517Z,57.20
2017-08-28T16:48:26.990Z,57.30
2017-08-28T16:50:54.464Z,58.00
2017-08-28T16:53:21.925Z,58.50
2017-08-28T16:55:49.383Z,57.90
2017-08-28T16:58:16.856Z,58.40
2017-08-28T17:00:44.329Z,60.40
2017-08-28T17:03:11.812Z,60.20
2017-08-28T17:05:39.664Z,59.70
2017-08-28T17:08:07.130Z,60.50
2017-08-28T17:10:34.593Z,59.60
2017-08-28T17:13:02.079Z,61.40
2017-08-28T17:15:29.547Z,61.90
2017-08-28T17:17:57.019Z,61.40
2017-08-28T17:20:24.488Z,61.80
2017-08-28T17:22:51.984Z,62.90
2017-08-28T17:25:19.452Z,64.30
2017-08-28T17:27:46.912Z,64.60
2017-08-28T17:30:14.389Z,65.90
2017-08-28T17:32:41.856Z,65.60
2017-08-28T17:35:09.331Z,66.00
2017-08-28T17:37:36.793Z,66.60
2017-08-28T17:40:05.040Z,66.00
2017-08-28T17:42:32.504Z,66.00
2017-08-28T17:44:59.977Z,67.00
2017-08-28T17:47:27.440Z,67.10
2017-08-28T17:49:54.917Z,66.80
2017-08-28T17:52:22.392Z,68.00
2017-08-28T17:57:23.792Z,68.00
2017-08-28T17:59:51.317Z,69.10
2017-08-28T18:02:18.809Z,69.40
2017-08-28T18:04:46.280Z,69.50
2017-08-28T18:07:13.740Z,70.20
2017-08-28T18:09:41.217Z,70.20
2017-08-28T18:12:08.675Z,70.60
2017-08-28T18:14:36.152Z,71.10
2017-08-28T18:17:03.621Z,71.10
2017-08-28T18:19:31.080Z,71.40
2017-08-28T18:21:58.548Z,71.60
2017-08-28T18:24:26.016Z,72.00
2017-08-28T18:26:53.484Z,73.00
2017-08-28T18:29:20.945Z,74.10
2017-08-28T18:31:48.415Z,75.00
2017-08-28T18:34:15.879Z,75.40
2017-08-28T18:36:43.368Z,76.10
2017-08-28T18:39:10.839Z,76.20
2017-08-28T18:41:38.323Z,77.00
2017-08-28T18:44:05.789Z,77.10
2017-08-28T18:46:33.264Z,77.30
2017-08-28T18:49:00.736Z,77.60
2017-08-28T18:51:28.211Z,78.30
2017-08-28T18:53:55.679Z,78.60
2017-08-28T18:56:24.077Z,79.10
2017-08-28T18:58:51.546Z,79.30
2017-08-28T19:01:19.011Z,79.40
2017-08-28T19:03:46.475Z,79.50
2017-08-28T19:06:13.944Z,79.90
2017-08-28T19:08:41.410Z,80.00
2017-08-28T19:11:08.880Z,80.50
2017-08-28T19:13:36.352Z,81.30
2017-08-28T19:16:03.822Z,80.90
2017-08-28T19:18:31.296Z,81.40
2017-08-28T19:20:58.759Z,81.60
2017-08-28T19:23:26.229Z,81.90
2017-08-28T19:25:53.692Z,82.10
2017-08-28T19:28:21.935Z,82.80
2017-08-28T19:30:49.395Z,82.80
2017-08-28T19:33:16.869Z,83.60
2017-08-28T19:35:44.378Z,83.90
2017-08-28T19:38:11.853Z,83.40
2017-08-28T19:40:39.316Z,84.00
2017-08-28T19:43:06.788Z,84.20
2017-08-28T19:45:34.258Z,84.50
2017-08-28T19:48:01.889Z,84.80
2017-08-28T19:50:29.383Z,85.30
2017-08-28T19:52:56.840Z,85.70
2017-08-28T19:55:24.316Z,85.50
2017-08-28T19:57:51.799Z,85.70
2017-08-28T20:00:19.288Z,85.90
2017-08-28T20:02:52.670Z,85.80
2017-08-28T20:05:20.140Z,85.90
2017-08-28T20:07:47.608Z,86.50
2017-08-28T20:10:15.076Z,87.00
2017-08-28T20:12:42.542Z,87.40
2017-08-28T20:15:10.013Z,87.40
2017-08-28T20:17:37.503Z,87.40
2017-08-28T20:20:05.182Z,87.40
2017-08-28T20:22:32.652Z,87.40
2017-08-28T20:25:00.143Z,87.60
2017-08-28T20:27:27.644Z,87.90
2017-08-28T20:29:55.151Z,88.80
2017-08-28T20:32:22.648Z,88.30
2017-08-28T20:34:50.128Z,88.50
2017-08-28T20:37:17.629Z,88.30
2017-08-28T20:39:45.087Z,88.60
2017-08-28T20:42:12.559Z,88.60
2017-08-28T20:44:40.027Z,88.30
2017-08-28T20:47:08.267Z,88.20
2017-08-28T20:49:35.748Z,88.20
2017-08-28T20:52:03.219Z,88.50
2017-08-28T20:54:30.712Z,88.30
2017-08-28T20:56:58.180Z,88.60
2017-08-28T20:59:25.639Z,88.90
2017-08-28T21:01:53.146Z,88.70
2017-08-28T21:04:20.610Z,88.70
2017-08-28T21:06:48.848Z,89.20
2017-08-28T21:09:16.312Z,89.20
2017-08-28T21:11:43.781Z,89.20
2017-08-28T21:14:11.248Z,89.20
2017-08-28T21:16:38.723Z,89.10
2017-08-28T21:19:06.184Z,89.10
2017-08-28T21:21:55.052Z,89.80
2017-08-28T21:24:22.527Z,90.10
2017-08-28T21:26:50.004Z,90.10
2017-08-28T21:29:17.466Z,90.10
2017-08-28T21:31:44.944Z,90.30
2017-08-28T21:34:12.400Z,90.20
2017-08-28T21:36:39.876Z,90.50
2017-08-28T21:39:08.499Z,90.50
2017-08-28T21:41:37.416Z,90.20
2017-08-28T21:44:04.886Z,90.20
2017-08-28T21:46:32.361Z,90.10
2017-08-28T21:48:59.827Z,90.20
2017-08-28T21:51:27.301Z,90.00
2017-08-28T21:53:54.772Z,90.30
2017-08-28T21:56:22.248Z,90.10
2017-08-28T21:58:49.716Z,90.20
2017-08-28T22:01:17.201Z,90.20
2017-08-28T22:03:44.729Z,90.20
2017-08-28T22:06:12.208Z,90.30
2017-08-28T22:08:39.699Z,90.40
2017-08-28T22:11:07.168Z,90.50
2017-08-28T22:13:34.643Z,90.50
2017-08-28T22:16:02.129Z,90.80
2017-08-28T22:18:29.611Z,90.80
2017-08-28T22:20:57.075Z,90.90
2017-08-28T22:23:24.553Z,91.10
2017-08-28T22:25:52.013Z,91.00
2017-08-28T22:28:19.497Z,91.00
2017-08-28T22:30:46.960Z,91.20
2017-08-28T22:33:14.427Z,91.40
2017-08-28T22:35:41.900Z,91.30
2017-08-28T22:38:09.371Z,91.20
2017-08-28T22:40:36.844Z,91.30
2017-08-28T22:43:04.304Z,91.40
2017-08-28T22:45:31.780Z,91.20
2017-08-28T22:47:59.239Z,91.10
2017-08-28T22:50:26.728Z,91.10
2017-08-28T22:52:54.188Z,91.10
2017-08-28T22:55:21.660Z,91.10
2017-08-28T22:57:49.129Z,91.10
2017-08-28T23:00:22.264Z,91.10
2017-08-28T23:02:49.728Z,91.10
2017-08-28T23:05:17.200Z,91.20
2017-08-28T23:07:44.670Z,91.20
2017-08-28T23:10:12.136Z,91.20
2017-08-28T23:12:39.613Z,91.20
2017-08-28T23:15:07.079Z,91.20
2017-08-28T23:17:34.554Z,91.50
2017-08-28T23:20:02.041Z,91.40
2017-08-28T23:22:29.500Z,91.50
2017-08-28T23:24:56.964Z,91.40
2017-08-28T23:27:24.431Z,91.40
2017-08-28T23:29:51.900Z,91.30
2017-08-28T23:32:19.367Z,91.30
2017-08-28T23:34:46.828Z,91.30
2017-08-28T23:37:14.319Z,91.40
2017-08-28T23:39:41.787Z,91.60
2017-08-28T23:42:09.263Z,91.50
2017-08-28T23:44:37.487Z,91.40
2017-08-28T23:47:04.955Z,91.40
2017-08-28T23:49:32.430Z,91.40
2017-08-28T23:51:59.897Z,91.40
2017-08-28T23:54:27.369Z,91.30
2017-08-28T23:56:54.836Z,91.30
2017-08-28T23:59:22.301Z,91.40
